createdAt,value
2022-10-30T00:00:35.653Z,100374.47
2022-10-30T00:03:04.354Z,100375.97
2022-10-30T00:05:32.270Z,100373.38
2022-10-30T00:08:00.776Z,100368.97
2022-10-30T00:10:28.858Z,100382.22
2022-10-30T00:12:56.663Z,100379.53
2022-10-30T00:15:25.788Z,100375.22
2022-10-30T00:17:54.292Z,100387.00
2022-10-30T00:20:22.156Z,100367.75
2022-10-30T00:22:49.947Z,100380.56
2022-10-30T00:25:17.805Z,100374.09
2022-10-30T00:27:45.626Z,100374.25
2022-10-30T00:30:15.381Z,100379.41
2022-10-30T00:32:44.624Z,100381.97
2022-10-30T00:35:12.488Z,100382.81
2022-10-30T00:37:40.339Z,100375.31
2022-10-30T00:40:09.123Z,100361.16
2022-10-30T00:42:36.943Z,100362.03
2022-10-30T00:45:06.031Z,100368.84
2022-10-30T00:47:36.919Z,100360.56
2022-10-30T00:50:10.712Z,100368.22
2022-10-30T00:52:43.563Z,100345.63
2022-10-30T00:55:15.851Z,100344.00
2022-10-30T00:57:44.018Z,100338.16
2022-10-30T01:00:14.117Z,100323.66
2022-10-30T01:02:44.982Z,100339.63
2022-10-30T01:05:18.695Z,100336.25
2022-10-30T01:07:47.463Z,100331.97
2022-10-30T01:10:16.008Z,100328.63
2022-10-30T01:12:47.452Z,100336.09
2022-10-30T01:15:16.656Z,100330.78
2022-10-30T01:18:03.385Z,100332.34
2022-10-30T01:20:57.360Z,100333.19
2022-10-30T01:23:39.116Z,100334.81
2022-10-30T01:26:15.727Z,100329.09
2022-10-30T01:28:56.438Z,100331.69
2022-10-30T01:31:40.177Z,100327.66
2022-10-30T01:34:19.322Z,100335.25
2022-10-30T01:36:56.517Z,100324.31
2022-10-30T01:39:28.351Z,100312.22
2022-10-30T01:41:58.514Z,100317.34
2022-10-30T01:44:30.672Z,100330.91
2022-10-30T01:47:18.715Z,100319.19
2022-10-30T01:50:13.552Z,100323.47
2022-10-30T01:52:50.908Z,100332.63
2022-10-30T01:55:30.632Z,100342.63
2022-10-30T01:58:03.607Z,100331.56
2022-10-30T02:00:32.207Z,100338.72
2022-10-30T02:03:00.614Z,100339.38
2022-10-30T02:05:39.493Z,100331.53
2022-10-30T02:08:08.795Z,100333.19
2022-10-30T02:10:40.065Z,100326.34
2022-10-30T02:13:07.946Z,100320.59
2022-10-30T02:15:36.731Z,100320.53
2022-10-30T02:18:05.046Z,100324.66
2022-10-30T02:20:35.734Z,100317.22
2022-10-30T02:23:04.351Z,100314.69
2022-10-30T02:25:34.217Z,100314.63
2022-10-30T02:28:02.173Z,100308.63
2022-10-30T02:30:32.119Z,100312.63
2022-10-30T02:33:02.373Z,100320.94
2022-10-30T02:35:31.004Z,100308.41
2022-10-30T02:38:00.702Z,100306.72
2022-10-30T02:40:28.927Z,100307.47
2022-10-30T02:42:57.822Z,100305.25
2022-10-30T02:45:25.596Z,100313.09
2022-10-30T02:47:53.486Z,100304.97
2022-10-30T02:50:21.391Z,100311.00
2022-10-30T02:52:49.211Z,100305.25
2022-10-30T02:55:19.702Z,100305.41
2022-10-30T02:57:48.832Z,100304.53
2022-10-30T03:00:16.881Z,100310.44
2022-10-30T03:02:44.723Z,100312.06
2022-10-30T03:05:12.575Z,100308.66
2022-10-30T03:07:40.940Z,100315.47
2022-10-30T03:10:09.440Z,100318.03
2022-10-30T03:12:38.614Z,100318.75
2022-10-30T03:15:07.235Z,100320.41
2022-10-30T03:17:36.635Z,100322.19
2022-10-30T03:20:04.810Z,100325.69
2022-10-30T03:22:32.564Z,100319.03
2022-10-30T03:25:01.343Z,100312.34
2022-10-30T03:27:29.142Z,100319.94
2022-10-30T03:29:58.258Z,100308.94
2022-10-30T03:32:26.198Z,100324.75
2022-10-30T03:34:55.444Z,100320.28
2022-10-30T03:37:23.347Z,100324.47
2022-10-30T03:39:51.203Z,100322.81
2022-10-30T03:42:22.407Z,100327.97
2022-10-30T03:44:52.461Z,100328.94
2022-10-30T03:47:21.781Z,100323.09
2022-10-30T03:49:49.616Z,100323.97
2022-10-30T03:52:20.849Z,100325.59
2022-10-30T03:54:50.406Z,100322.66
2022-10-30T03:57:20.405Z,100333.56
2022-10-30T04:00:07.560Z,100330.63
2022-10-30T04:02:57.530Z,100318.22
2022-10-30T04:05:28.472Z,100328.22
2022-10-30T04:07:59.024Z,100326.47
2022-10-30T04:10:27.856Z,100326.53
2022-10-30T04:13:01.288Z,100329.84
2022-10-30T04:15:29.332Z,100328.09
2022-10-30T04:17:58.773Z,100322.19
2022-10-30T04:20:28.017Z,100317.69
2022-10-30T04:22:59.819Z,100311.59
2022-10-30T04:25:29.090Z,100315.81
2022-10-30T04:27:59.700Z,100315.75
2022-10-30T04:30:28.319Z,100300.59
2022-10-30T04:32:58.685Z,100318.28
2022-10-30T04:35:28.859Z,100309.81
2022-10-30T04:37:58.446Z,100308.88
2022-10-30T04:40:28.999Z,100307.88
2022-10-30T04:43:01.330Z,100306.13
2022-10-30T04:45:29.255Z,100303.69
2022-10-30T04:48:03.649Z,100310.31
2022-10-30T04:50:33.095Z,100312.16
2022-10-30T04:53:02.626Z,100310.72
2022-10-30T04:55:31.803Z,100310.91
2022-10-30T04:58:02.907Z,100308.22
2022-10-30T05:00:33.715Z,100313.19
2022-10-30T05:03:19.259Z,100309.56
2022-10-30T05:05:48.078Z,100313.66
2022-10-30T05:08:15.996Z,100318.03
2022-10-30T05:10:44.454Z,100317.31
2022-10-30T05:13:13.220Z,100320.16
2022-10-30T05:15:42.710Z,100327.06
2022-10-30T05:18:11.383Z,100333.59
2022-10-30T05:20:40.925Z,100322.44
2022-10-30T05:23:10.728Z,100302.78
2022-10-30T05:25:38.730Z,100314.75
2022-10-30T05:28:09.173Z,100308.97
2022-10-30T05:30:44.071Z,100307.03
2022-10-30T05:33:24.180Z,100312.06
2022-10-30T05:35:53.410Z,100310.59
2022-10-30T05:38:21.447Z,100301.94
2022-10-30T05:40:49.895Z,100317.84
2022-10-30T05:43:17.860Z,100311.81
2022-10-30T05:45:49.297Z,100319.19
2022-10-30T05:48:19.039Z,100319.09
2022-10-30T05:50:47.948Z,100324.94
2022-10-30T05:53:37.435Z,100319.19
2022-10-30T05:56:06.966Z,100321.00
2022-10-30T05:58:36.216Z,100318.53
2022-10-30T06:01:07.161Z,100319.28
2022-10-30T06:03:43.578Z,100318.25
2022-10-30T06:06:12.563Z,100321.75
2022-10-30T06:08:41.859Z,100324.59
2022-10-30T06:11:28.126Z,100319.81
2022-10-30T06:13:59.115Z,100323.94
2022-10-30T06:16:56.037Z,100324.00
2022-10-30T06:19:32.831Z,100310.53
2022-10-30T06:22:21.419Z,100309.78
2022-10-30T06:24:57.267Z,100324.22
2022-10-30T06:27:40.053Z,100319.94
2022-10-30T06:30:08.850Z,100310.59
2022-10-30T06:32:36.722Z,100322.72
2022-10-30T06:35:05.203Z,100323.84
2022-10-30T06:37:33.003Z,100331.31
2022-10-30T06:40:10.266Z,100330.38
2022-10-30T06:42:59.834Z,100337.81
2022-10-30T06:45:39.575Z,100301.81
2022-10-30T06:48:07.708Z,100345.16
2022-10-30T06:50:41.302Z,100345.53
2022-10-30T06:53:09.331Z,100338.19
2022-10-30T06:55:39.575Z,100345.13
2022-10-30T06:58:23.418Z,100351.16
2022-10-30T07:01:00.824Z,100335.41
2022-10-30T07:03:58.512Z,100341.34
2022-10-30T07:06:27.344Z,100339.81
2022-10-30T07:08:55.322Z,100330.69
2022-10-30T07:11:24.574Z,100334.03
2022-10-30T07:14:13.766Z,100342.44
2022-10-30T07:16:49.398Z,100339.88
2022-10-30T07:19:17.579Z,100338.22
2022-10-30T07:21:45.487Z,100344.84
2022-10-30T07:24:13.350Z,100344.84
2022-10-30T07:26:52.055Z,100343.09
2022-10-30T07:29:34.515Z,100345.72
2022-10-30T07:32:20.517Z,100346.78
2022-10-30T07:34:53.711Z,100348.41
2022-10-30T07:37:44.412Z,100345.75
2022-10-30T07:40:14.683Z,100350.91
2022-10-30T07:42:58.720Z,100349.53
2022-10-30T07:45:47.757Z,100339.16
2022-10-30T07:48:33.904Z,100354.75
2022-10-30T07:51:07.844Z,100354.88
2022-10-30T07:53:35.687Z,100347.50
2022-10-30T07:56:05.429Z,100349.25
2022-10-30T07:58:53.216Z,100342.63
2022-10-30T08:01:39.717Z,100345.13
2022-10-30T08:04:25.263Z,100349.34
2022-10-30T08:07:00.869Z,100348.56
2022-10-30T08:09:30.611Z,100347.72
2022-10-30T08:11:58.410Z,100357.00
2022-10-30T08:14:28.022Z,100356.22
2022-10-30T08:16:57.648Z,100358.00
2022-10-30T08:19:25.531Z,100356.38
2022-10-30T08:21:57.605Z,100353.03
2022-10-30T08:24:28.110Z,100355.22
2022-10-30T08:26:59.675Z,100338.41
2022-10-30T08:29:29.894Z,100351.19
2022-10-30T08:31:58.711Z,100346.28
2022-10-30T08:34:46.475Z,100349.84
2022-10-30T08:37:17.829Z,100348.38
2022-10-30T08:39:46.323Z,100351.84
2022-10-30T08:42:32.486Z,100350.00
2022-10-30T08:45:05.423Z,100341.50
2022-10-30T08:47:58.878Z,100354.97
2022-10-30T08:50:29.667Z,100351.63
2022-10-30T08:53:02.154Z,100350.63
2022-10-30T08:55:30.937Z,100350.78
2022-10-30T08:58:01.781Z,100350.09
2022-10-30T09:00:32.311Z,100341.72
2022-10-30T09:03:12.196Z,100344.31
2022-10-30T09:06:15.582Z,100321.38
2022-10-30T09:09:15.615Z,100340.91
2022-10-30T09:11:51.070Z,100346.81
2022-10-30T09:14:18.997Z,100341.78
2022-10-30T09:16:48.303Z,100331.78
2022-10-30T09:19:19.111Z,100337.75
2022-10-30T09:21:48.467Z,100343.69
2022-10-30T09:24:16.263Z,100345.25
2022-10-30T09:26:44.035Z,100353.53
2022-10-30T09:29:32.124Z,100351.91
2022-10-30T09:32:16.932Z,100345.91
2022-10-30T09:34:56.363Z,100339.63
2022-10-30T09:37:28.730Z,100347.09
2022-10-30T09:40:00.592Z,100338.94
2022-10-30T09:42:41.573Z,100335.81
2022-10-30T09:45:35.075Z,100336.75
2022-10-30T09:48:26.377Z,100337.63
2022-10-30T09:51:41.561Z,100336.03
2022-10-30T09:54:21.767Z,100320.06
2022-10-30T09:57:02.295Z,100338.56
2022-10-30T09:59:43.739Z,100336.75
2022-10-30T10:02:27.598Z,100333.13
2022-10-30T10:05:02.154Z,100338.31
2022-10-30T10:07:56.801Z,100339.25
2022-10-30T10:10:46.896Z,100350.34
2022-10-30T10:13:29.077Z,100344.66
2022-10-30T10:16:00.240Z,100338.03
2022-10-30T10:18:34.308Z,100343.16
2022-10-30T10:21:11.673Z,100352.47
2022-10-30T10:23:45.744Z,100345.84
2022-10-30T10:26:27.528Z,100346.59
2022-10-30T10:29:09.735Z,100339.78
2022-10-30T10:31:44.679Z,100339.00
2022-10-30T10:34:52.028Z,100341.72
2022-10-30T10:37:31.331Z,100335.00
2022-10-30T10:40:27.862Z,100320.56
2022-10-30T10:43:06.074Z,100327.41
2022-10-30T10:45:44.885Z,100337.47
2022-10-30T10:48:24.130Z,100335.59
2022-10-30T10:50:58.112Z,100321.25
2022-10-30T10:53:34.640Z,100322.13
2022-10-30T10:56:02.725Z,100330.56
2022-10-30T10:58:36.440Z,100321.88
2022-10-30T11:01:09.576Z,100322.25
2022-10-30T11:03:47.119Z,100318.81
2022-10-30T11:06:21.682Z,100311.53
2022-10-30T11:08:54.353Z,100313.22
2022-10-30T11:11:22.185Z,100310.66
2022-10-30T11:13:50.830Z,100313.97
2022-10-30T11:16:26.692Z,100317.47
2022-10-30T11:18:59.017Z,100319.31
2022-10-30T11:21:28.779Z,100315.13
2022-10-30T11:23:57.932Z,100320.25
2022-10-30T11:26:29.414Z,100318.53
2022-10-30T11:28:59.808Z,100325.34
2022-10-30T11:31:34.672Z,100321.13
2022-10-30T11:34:26.013Z,100322.69
2022-10-30T11:36:55.136Z,100320.25
2022-10-30T11:39:25.801Z,100322.00
2022-10-30T11:42:00.994Z,100309.59
2022-10-30T11:44:36.043Z,100298.13
2022-10-30T11:47:05.184Z,100296.72
2022-10-30T11:49:41.934Z,100293.41
2022-10-30T11:52:10.554Z,100299.47
2022-10-30T11:54:45.210Z,100292.66
2022-10-30T11:57:24.044Z,100307.13
2022-10-30T11:59:57.254Z,100302.94
2022-10-30T12:02:29.708Z,100307.22
2022-10-30T12:05:02.887Z,100307.31
2022-10-30T12:07:32.576Z,100307.25
2022-10-30T12:10:03.050Z,100305.41
2022-10-30T12:12:35.031Z,100306.25
2022-10-30T12:15:11.631Z,100297.81
2022-10-30T12:17:40.811Z,100296.91
2022-10-30T12:20:15.042Z,100302.16
2022-10-30T12:22:42.959Z,100297.19
2022-10-30T12:25:23.432Z,100294.50
2022-10-30T12:27:58.899Z,100291.09
2022-10-30T12:30:28.869Z,100288.53
2022-10-30T12:33:00.157Z,100289.31
2022-10-30T12:35:41.720Z,100279.16
2022-10-30T12:38:16.556Z,100281.56
2022-10-30T12:40:58.794Z,100278.16
2022-10-30T12:43:28.458Z,100280.66
2022-10-30T12:46:01.955Z,100284.13
2022-10-30T12:48:37.270Z,100277.41
2022-10-30T12:51:18.311Z,100265.56
2022-10-30T12:53:58.449Z,100273.09
2022-10-30T12:56:32.630Z,100279.03
2022-10-30T12:59:17.590Z,100272.41
2022-10-30T13:01:50.569Z,100275.75
2022-10-30T13:04:23.224Z,100279.91
2022-10-30T13:06:58.723Z,100277.25
2022-10-30T13:09:31.912Z,100267.94
2022-10-30T13:12:05.495Z,100262.81
2022-10-30T13:14:39.793Z,100272.13
2022-10-30T13:17:12.563Z,100267.13
2022-10-30T13:19:41.731Z,100258.84
2022-10-30T13:22:17.498Z,100264.00
2022-10-30T13:24:53.215Z,100264.81
2022-10-30T13:27:28.656Z,100255.63
2022-10-30T13:30:03.361Z,100257.19
2022-10-30T13:32:42.876Z,100256.25
2022-10-30T13:35:22.530Z,100254.72
2022-10-30T13:37:58.478Z,100253.84
2022-10-30T13:40:33.690Z,100251.31
2022-10-30T13:43:16.644Z,100242.94
2022-10-30T13:45:58.895Z,100255.63
2022-10-30T13:48:39.464Z,100253.06
2022-10-30T13:51:36.447Z,100255.53
2022-10-30T13:54:11.674Z,100259.69
2022-10-30T13:56:40.976Z,100247.91
2022-10-30T13:59:25.484Z,100247.09
2022-10-30T14:02:02.409Z,100250.50
2022-10-30T14:04:37.302Z,100250.41
2022-10-30T14:07:21.009Z,100255.34
2022-10-30T14:09:57.571Z,100238.28
2022-10-30T14:12:45.267Z,100263.00
2022-10-30T14:15:25.518Z,100266.41
2022-10-30T14:18:25.578Z,100268.88
2022-10-30T14:20:54.427Z,100273.84
2022-10-30T14:23:23.971Z,100266.25
2022-10-30T14:26:21.464Z,100262.03
2022-10-30T14:28:51.020Z,100260.38
2022-10-30T14:31:33.692Z,100254.53
2022-10-30T14:34:01.642Z,100253.69
2022-10-30T14:36:50.624Z,100250.28
2022-10-30T14:39:30.038Z,100258.56
2022-10-30T14:42:06.984Z,100256.75
2022-10-30T14:44:59.048Z,100246.63
2022-10-30T14:47:47.700Z,100254.16
2022-10-30T14:50:28.947Z,100254.13
2022-10-30T14:53:18.739Z,100238.88
2022-10-30T14:55:56.788Z,100235.47
2022-10-30T14:58:26.701Z,100237.22
2022-10-30T15:01:20.638Z,100230.53
2022-10-30T15:04:00.034Z,100235.50
2022-10-30T15:06:35.204Z,100237.97
2022-10-30T15:09:14.791Z,100237.00
2022-10-30T15:12:01.014Z,100237.81
2022-10-30T15:14:48.480Z,100242.84
2022-10-30T15:17:27.783Z,100247.88
2022-10-30T15:19:59.054Z,100249.50
2022-10-30T15:22:30.304Z,100246.06
2022-10-30T15:24:59.492Z,100248.53
2022-10-30T15:27:27.898Z,100243.47
2022-10-30T15:30:00.388Z,100243.47
2022-10-30T15:32:28.347Z,100238.41
2022-10-30T15:35:00.884Z,100241.63
2022-10-30T15:37:29.036Z,100254.28
2022-10-30T15:40:17.674Z,100255.84
2022-10-30T15:42:46.165Z,100244.06
2022-10-30T15:45:20.257Z,100252.44
2022-10-30T15:47:51.847Z,100257.47
2022-10-30T15:50:21.770Z,100244.03
2022-10-30T15:52:50.762Z,100239.00
2022-10-30T15:55:21.514Z,100234.81
2022-10-30T15:58:08.152Z,100237.25
2022-10-30T16:00:37.970Z,100231.41
2022-10-30T16:03:07.881Z,100232.31
2022-10-30T16:05:37.015Z,100236.50
2022-10-30T16:08:13.318Z,100240.63
2022-10-30T16:10:44.293Z,100235.53
2022-10-30T16:13:17.821Z,100232.91
2022-10-30T16:15:47.379Z,100236.13
2022-10-30T16:18:20.618Z,100242.09
2022-10-30T16:20:52.769Z,100244.66
2022-10-30T16:23:22.655Z,100226.84
2022-10-30T16:25:55.390Z,100241.25
2022-10-30T16:28:25.745Z,100238.75
2022-10-30T16:30:53.804Z,100241.25
2022-10-30T16:33:27.131Z,100242.88
2022-10-30T16:35:56.650Z,100242.03
2022-10-30T16:38:27.966Z,100245.44
2022-10-30T16:40:56.365Z,100243.81
2022-10-30T16:43:30.315Z,100246.25
2022-10-30T16:46:30.623Z,100249.56
2022-10-30T16:49:01.192Z,100251.19
2022-10-30T16:51:31.347Z,100252.00
2022-10-30T16:53:59.283Z,100267.06
2022-10-30T16:56:29.145Z,100260.97
2022-10-30T16:59:06.095Z,100270.31
2022-10-30T17:01:34.566Z,100261.06
2022-10-30T17:04:02.816Z,100273.63
2022-10-30T17:06:40.321Z,100268.69
2022-10-30T17:09:10.357Z,100272.06
2022-10-30T17:11:41.849Z,100275.31
2022-10-30T17:14:20.091Z,100277.81
2022-10-30T17:16:56.691Z,100284.50
2022-10-30T17:19:49.516Z,100283.53
2022-10-30T17:22:21.812Z,100280.47
2022-10-30T17:24:49.641Z,100279.53
2022-10-30T17:27:30.517Z,100287.13
2022-10-30T17:29:58.514Z,100285.47
2022-10-30T17:32:27.827Z,100287.25
2022-10-30T17:35:00.832Z,100280.63
2022-10-30T17:37:30.464Z,100267.19
2022-10-30T17:39:58.265Z,100273.94
2022-10-30T17:42:26.010Z,100273.94
2022-10-30T17:44:53.788Z,100279.81
2022-10-30T17:47:22.008Z,100293.19
2022-10-30T17:49:50.088Z,100288.19
2022-10-30T17:52:21.036Z,100287.38
2022-10-30T17:54:50.336Z,100278.22
2022-10-30T17:57:18.357Z,100268.22
2022-10-30T17:59:46.286Z,100267.41
2022-10-30T18:02:15.788Z,100268.31
2022-10-30T18:04:44.284Z,100267.50
2022-10-30T18:07:13.067Z,100280.81
2022-10-30T18:09:40.973Z,100277.34
2022-10-30T18:12:14.932Z,100269.53
2022-10-30T18:14:45.491Z,100283.97
2022-10-30T18:17:13.487Z,100284.69
2022-10-30T18:19:41.296Z,100277.81
2022-10-30T18:22:10.601Z,100287.78
2022-10-30T18:24:38.615Z,100290.19
2022-10-30T18:27:06.376Z,100295.19
2022-10-30T18:29:35.484Z,100294.47
2022-10-30T18:32:08.428Z,100292.81
2022-10-30T18:34:37.407Z,100277.81
2022-10-30T18:37:05.195Z,100276.22
2022-10-30T18:39:33.061Z,100268.59
2022-10-30T18:42:00.896Z,100271.09
2022-10-30T18:44:28.682Z,100273.69
2022-10-30T18:47:02.778Z,100276.25
2022-10-30T18:49:33.259Z,100267.91
2022-10-30T18:52:01.026Z,100272.16
2022-10-30T18:54:28.858Z,100273.03
2022-10-30T18:56:56.635Z,100278.13
2022-10-30T18:59:24.397Z,100267.94
2022-10-30T19:01:52.417Z,100263.78
2022-10-30T19:04:22.552Z,100268.00
2022-10-30T19:06:50.896Z,100269.63
2022-10-30T19:09:18.696Z,100269.63
2022-10-30T19:11:46.532Z,100283.91
2022-10-30T19:14:15.909Z,100264.59
2022-10-30T19:16:43.786Z,100268.16
2022-10-30T19:19:11.566Z,100262.25
2022-10-30T19:21:40.707Z,100263.00
2022-10-30T19:24:13.507Z,100253.00
2022-10-30T19:26:41.544Z,100250.53
2022-10-30T19:29:09.352Z,100257.22
2022-10-30T19:31:37.152Z,100268.06
2022-10-30T19:34:05.195Z,100267.78
2022-10-30T19:36:35.994Z,100282.59
2022-10-30T19:39:11.096Z,100260.81
2022-10-30T19:41:39.884Z,100266.75
2022-10-30T19:44:07.903Z,100276.03
2022-10-30T19:46:35.756Z,100275.97
2022-10-30T19:49:16.019Z,100271.75
2022-10-30T19:51:43.873Z,100269.22
2022-10-30T19:54:13.044Z,100271.94
2022-10-30T19:56:42.180Z,100268.72
2022-10-30T19:59:10.673Z,100275.34
2022-10-30T20:01:38.737Z,100285.50
2022-10-30T20:04:06.665Z,100275.44
2022-10-30T20:06:34.542Z,100283.03
2022-10-30T20:09:02.632Z,100274.72
2022-10-30T20:11:31.941Z,100273.09
2022-10-30T20:13:59.712Z,100273.88
2022-10-30T20:16:29.509Z,100273.03
2022-10-30T20:18:57.385Z,100281.38
2022-10-30T20:21:25.168Z,100272.25
2022-10-30T20:23:52.965Z,100266.44
2022-10-30T20:26:25.663Z,100265.63
2022-10-30T20:28:55.518Z,100275.69
2022-10-30T20:31:23.350Z,100274.75
2022-10-30T20:33:51.149Z,100271.41
2022-10-30T20:36:18.936Z,100276.38
2022-10-30T20:38:46.962Z,100271.41
2022-10-30T20:41:22.357Z,100268.88
2022-10-30T20:43:50.963Z,100273.81
2022-10-30T20:46:20.615Z,100274.56
2022-10-30T20:48:48.689Z,100254.25
2022-10-30T20:51:16.864Z,100268.72
2022-10-30T20:53:44.728Z,100266.97
2022-10-30T20:56:12.534Z,100276.25
2022-10-30T20:58:42.473Z,100274.63
2022-10-30T21:01:10.850Z,100267.91
2022-10-30T21:03:40.231Z,100273.78
2022-10-30T21:06:09.807Z,100270.38
2022-10-30T21:08:38.028Z,100271.22
2022-10-30T21:11:07.669Z,100277.97
2022-10-30T21:13:36.123Z,100277.09
2022-10-30T21:16:06.717Z,100276.34
2022-10-30T21:18:34.566Z,100275.56
2022-10-30T21:21:04.378Z,100263.81
2022-10-30T21:23:32.236Z,100261.34
2022-10-30T21:26:00.510Z,100273.91
2022-10-30T21:28:28.330Z,100279.75
2022-10-30T21:30:56.216Z,100279.66
2022-10-30T21:33:24.215Z,100277.81
2022-10-30T21:35:51.955Z,100281.91
2022-10-30T21:38:21.198Z,100270.78
2022-10-30T21:40:55.747Z,100279.84
2022-10-30T21:43:23.609Z,100276.56
2022-10-30T21:45:51.403Z,100270.78
2022-10-30T21:48:19.207Z,100265.06
2022-10-30T21:50:46.984Z,100269.34
2022-10-30T21:53:14.786Z,100268.66
2022-10-30T21:55:43.905Z,100270.16
2022-10-30T21:58:11.732Z,100280.81
2022-10-30T22:00:39.750Z,100280.66
2022-10-30T22:03:07.560Z,100277.16
2022-10-30T22:05:35.343Z,100275.13
2022-10-30T22:08:03.155Z,100264.28
2022-10-30T22:10:30.999Z,100256.84
2022-10-30T22:13:00.282Z,100264.50
2022-10-30T22:15:28.130Z,100264.63
2022-10-30T22:17:56.084Z,100268.91
2022-10-30T22:20:23.973Z,100260.38
2022-10-30T22:22:51.832Z,100264.88
2022-10-30T22:25:19.662Z,100257.41
2022-10-30T22:27:48.302Z,100259.03
2022-10-30T22:30:17.598Z,100256.44
2022-10-30T22:32:45.572Z,100254.72
2022-10-30T22:35:13.375Z,100252.13
2022-10-30T22:37:41.181Z,100243.69
2022-10-30T22:40:10.148Z,100243.78
2022-10-30T22:42:38.220Z,100251.47
2022-10-30T22:45:07.448Z,100249.81
2022-10-30T22:47:37.909Z,100257.47
2022-10-30T22:50:06.832Z,100254.94
2022-10-30T22:52:34.763Z,100265.06
2022-10-30T22:55:02.556Z,100257.56
2022-10-30T22:57:30.571Z,100250.78
2022-10-30T22:59:58.448Z,100259.06
2022-10-30T23:02:26.271Z,100265.41
2022-10-30T23:04:55.423Z,100265.31
2022-10-30T23:07:23.392Z,100264.47
2022-10-30T23:09:51.196Z,100263.53
2022-10-30T23:12:18.985Z,100266.03
2022-10-30T23:14:46.780Z,100262.81
2022-10-30T23:17:14.578Z,100256.03
2022-10-30T23:19:42.378Z,100265.56
2022-10-30T23:22:11.482Z,100267.41
2022-10-30T23:24:39.574Z,100254.00
2022-10-30T23:27:07.338Z,100269.16
2022-10-30T23:29:35.163Z,100254.06
2022-10-30T23:32:02.951Z,100258.28
2022-10-30T23:34:30.926Z,100259.19
2022-10-30T23:37:00.882Z,100258.41
2022-10-30T23:39:31.245Z,100260.97
2022-10-30T23:41:58.992Z,100259.28
2022-10-30T23:44:26.778Z,100257.56
2022-10-30T23:46:54.593Z,100260.88
2022-10-30T23:49:22.452Z,100256.75
2022-10-30T23:51:50.525Z,100261.78
2022-10-30T23:54:18.344Z,100242.41
2022-10-30T23:56:47.476Z,100259.28
2022-10-30T23:59:15.315Z,100252.53
